sensor_id;sensor_type;location;lat;lon;timestamp;pressure;altitude;pressure_sealevel;temperature;humidity
27014;BME280;14556;52.222;4.510;2023-04-30T00:02:24;101717.84;;;5.73;100.00
27014;BME280;14556;52.222;4.510;2023-04-30T00:04:51;101712.41;;;5.75;100.00
27014;BME280;14556;52.222;4.510;2023-04-30T00:07:18;101733.66;;;5.75;100.00
27014;BME280;14556;52.222;4.510;2023-04-30T00:09:44;101714.69;;;5.60;100.00
27014;BME280;14556;52.222;4.510;2023-04-30T00:12:11;101732.84;;;5.64;100.00
27014;BME280;14556;52.222;4.510;2023-04-30T00:14:37;101729.22;;;5.65;100.00
27014;BME280;14556;52.222;4.510;2023-04-30T00:17:04;101726.13;;;5.70;100.00
27014;BME280;14556;52.222;4.510;2023-04-30T00:19:31;101727.13;;;5.69;100.00
27014;BME280;14556;52.222;4.510;2023-04-30T00:21:57;101722.91;;;5.66;100.00
27014;BME280;14556;52.222;4.510;2023-04-30T00:24:27;101731.16;;;5.63;100.00
27014;BME280;14556;52.222;4.510;2023-04-30T00:26:54;101731.31;;;5.52;100.00
27014;BME280;14556;52.222;4.510;2023-04-30T00:29:20;101730.25;;;5.44;100.00
27014;BME280;14556;52.222;4.510;2023-04-30T00:31:47;101729.69;;;5.41;100.00
27014;BME280;14556;52.222;4.510;2023-04-30T00:34:14;101723.25;;;5.43;100.00
27014;BME280;14556;52.222;4.510;2023-04-30T00:36:40;101720.31;;;5.37;100.00
27014;BME280;14556;52.222;4.510;2023-04-30T00:39:07;101715.16;;;5.35;100.00
27014;BME280;14556;52.222;4.510;2023-04-30T00:41:34;101725.50;;;5.38;100.00
27014;BME280;14556;52.222;4.510;2023-04-30T00:44:01;101720.06;;;5.30;100.00
27014;BME280;14556;52.222;4.510;2023-04-30T00:46:28;101719.94;;;5.22;100.00
27014;BME280;14556;52.222;4.510;2023-04-30T00:48:54;101723.69;;;5.29;100.00
27014;BME280;14556;52.222;4.510;2023-04-30T00:51:21;101719.50;;;5.26;100.00
27014;BME280;14556;52.222;4.510;2023-04-30T00:53:48;101733.47;;;5.28;100.00
27014;BME280;14556;52.222;4.510;2023-04-30T00:56:14;101723.97;;;5.26;100.00
27014;BME280;14556;52.222;4.510;2023-04-30T00:58:41;101728.44;;;5.35;100.00
27014;BME280;14556;52.222;4.510;2023-04-30T01:01:08;101731.63;;;5.29;100.00
27014;BME280;14556;52.222;4.510;2023-04-30T01:03:35;101715.59;;;5.20;100.00
27014;BME280;14556;52.222;4.510;2023-04-30T01:06:02;101729.84;;;5.19;100.00
27014;BME280;14556;52.222;4.510;2023-04-30T01:08:29;101726.19;;;5.20;100.00
27014;BME280;14556;52.222;4.510;2023-04-30T01:17:07;101734.56;;;5.26;100.00
27014;BME280;14556;52.222;4.510;2023-04-30T01:19:44;101703.19;;;5.11;100.00
27014;BME280;14556;52.222;4.510;2023-04-30T01:30:33;101737.22;;;5.26;100.00
27014;BME280;14556;52.222;4.510;2023-04-30T01:33:00;101745.03;;;5.27;100.00
27014;BME280;14556;52.222;4.510;2023-04-30T01:35:58;101751.34;;;5.26;100.00
27014;BME280;14556;52.222;4.510;2023-04-30T01:47:01;101746.44;;;5.12;100.00
27014;BME280;14556;52.222;4.510;2023-04-30T01:49:56;101733.63;;;5.07;100.00
27014;BME280;14556;52.222;4.510;2023-04-30T01:52:31;101742.69;;;5.04;100.00
27014;BME280;14556;52.222;4.510;2023-04-30T01:55:10;101733.47;;;4.79;100.00
27014;BME280;14556;52.222;4.510;2023-04-30T01:57:44;101735.00;;;4.81;100.00
27014;BME280;14556;52.222;4.510;2023-04-30T02:00:15;101742.97;;;4.81;100.00
27014;BME280;14556;52.222;4.510;2023-04-30T02:02:43;101737.34;;;4.75;100.00
27014;BME280;14556;52.222;4.510;2023-04-30T02:05:09;101729.97;;;4.78;100.00
27014;BME280;14556;52.222;4.510;2023-04-30T02:07:44;101738.75;;;4.79;100.00
27014;BME280;14556;52.222;4.510;2023-04-30T02:10:12;101728.31;;;4.67;100.00
27014;BME280;14556;52.222;4.510;2023-04-30T02:12:39;101739.31;;;4.82;100.00
27014;BME280;14556;52.222;4.510;2023-04-30T02:15:06;101729.16;;;4.78;100.00
27014;BME280;14556;52.222;4.510;2023-04-30T02:17:33;101734.69;;;4.75;100.00
27014;BME280;14556;52.222;4.510;2023-04-30T02:20:00;101731.38;;;4.72;100.00
27014;BME280;14556;52.222;4.510;2023-04-30T02:22:26;101725.94;;;4.74;100.00
27014;BME280;14556;52.222;4.510;2023-04-30T02:24:53;101725.22;;;4.82;100.00
27014;BME280;14556;52.222;4.510;2023-04-30T02:27:23;101734.59;;;4.86;100.00
27014;BME280;14556;52.222;4.510;2023-04-30T02:29:50;101723.41;;;4.92;100.00
27014;BME280;14556;52.222;4.510;2023-04-30T02:32:18;101720.63;;;4.84;100.00
27014;BME280;14556;52.222;4.510;2023-04-30T02:34:47;101733.59;;;4.87;100.00
27014;BME280;14556;52.222;4.510;2023-04-30T02:37:14;101732.34;;;4.91;100.00
27014;BME280;14556;52.222;4.510;2023-04-30T02:39:41;101736.41;;;4.95;100.00
27014;BME280;14556;52.222;4.510;2023-04-30T02:42:07;101733.06;;;4.93;100.00
27014;BME280;14556;52.222;4.510;2023-04-30T02:44:34;101735.00;;;5.01;100.00
27014;BME280;14556;52.222;4.510;2023-04-30T02:47:01;101731.78;;;4.98;100.00
27014;BME280;14556;52.222;4.510;2023-04-30T02:49:28;101733.22;;;4.92;100.00
27014;BME280;14556;52.222;4.510;2023-04-30T02:51:54;101728.72;;;4.82;100.00
27014;BME280;14556;52.222;4.510;2023-04-30T02:54:21;101724.09;;;4.75;100.00
27014;BME280;14556;52.222;4.510;2023-04-30T02:56:48;101727.03;;;4.71;100.00
27014;BME280;14556;52.222;4.510;2023-04-30T02:59:14;101731.94;;;4.76;100.00
27014;BME280;14556;52.222;4.510;2023-04-30T03:01:41;101714.75;;;4.70;100.00
27014;BME280;14556;52.222;4.510;2023-04-30T03:04:07;101730.25;;;4.75;100.00
27014;BME280;14556;52.222;4.510;2023-04-30T03:06:34;101721.16;;;4.68;100.00
27014;BME280;14556;52.222;4.510;2023-04-30T03:09:00;101718.25;;;4.71;100.00
27014;BME280;14556;52.222;4.510;2023-04-30T03:11:27;101720.50;;;4.76;100.00
27014;BME280;14556;52.222;4.510;2023-04-30T03:13:53;101723.41;;;4.82;100.00
27014;BME280;14556;52.222;4.510;2023-04-30T03:16:20;101709.03;;;4.85;100.00
27014;BME280;14556;52.222;4.510;2023-04-30T03:18:48;101716.31;;;4.93;100.00
27014;BME280;14556;52.222;4.510;2023-04-30T03:21:14;101725.09;;;4.93;100.00
27014;BME280;14556;52.222;4.510;2023-04-30T03:23:42;101730.28;;;4.95;100.00
27014;BME280;14556;52.222;4.510;2023-04-30T03:26:08;101730.28;;;4.95;100.00
27014;BME280;14556;52.222;4.510;2023-04-30T03:28:35;101718.41;;;4.89;100.00
27014;BME280;14556;52.222;4.510;2023-04-30T03:31:02;101718.69;;;4.86;100.00
27014;BME280;14556;52.222;4.510;2023-04-30T03:33:31;101719.81;;;4.93;100.00
27014;BME280;14556;52.222;4.510;2023-04-30T03:35:58;101713.50;;;4.94;100.00
27014;BME280;14556;52.222;4.510;2023-04-30T03:38:25;101719.81;;;4.93;100.00
27014;BME280;14556;52.222;4.510;2023-04-30T03:40:51;101710.31;;;4.91;100.00
27014;BME280;14556;52.222;4.510;2023-04-30T03:43:18;101722.47;;;4.93;100.00
27014;BME280;14556;52.222;4.510;2023-04-30T03:45:44;101724.25;;;4.93;100.00
27014;BME280;14556;52.222;4.510;2023-04-30T03:48:11;101716.44;;;4.91;100.00
27014;BME280;14556;52.222;4.510;2023-04-30T03:50:38;101711.16;;;4.91;100.00
27014;BME280;14556;52.222;4.510;2023-04-30T03:53:04;101708.06;;;4.96;100.00
27014;BME280;14556;52.222;4.510;2023-04-30T03:55:32;101719.81;;;4.93;100.00
27014;BME280;14556;52.222;4.510;2023-04-30T03:57:59;101718.13;;;4.92;100.00
27014;BME280;14556;52.222;4.510;2023-04-30T04:00:26;101710.31;;;4.81;100.00
27014;BME280;14556;52.222;4.510;2023-04-30T04:02:53;101711.25;;;4.80;100.00
27014;BME280;14556;52.222;4.510;2023-04-30T04:05:21;101718.53;;;4.78;100.00
27014;BME280;14556;52.222;4.510;2023-04-30T04:07:47;101703.59;;;4.77;100.00
27014;BME280;14556;52.222;4.510;2023-04-30T04:10:14;101707.25;;;4.76;100.00
27014;BME280;14556;52.222;4.510;2023-04-30T04:12:41;101705.00;;;4.71;100.00
27014;BME280;14556;52.222;4.510;2023-04-30T04:15:08;101704.69;;;4.64;100.00
27014;BME280;14556;52.222;4.510;2023-04-30T04:17:34;101696.63;;;4.66;100.00
27014;BME280;14556;52.222;4.510;2023-04-30T04:20:01;101698.72;;;4.62;100.00
27014;BME280;14556;52.222;4.510;2023-04-30T04:22:28;101709.72;;;4.57;100.00
27014;BME280;14556;52.222;4.510;2023-04-30T04:24:54;101701.06;;;4.55;100.00
27014;BME280;14556;52.222;4.510;2023-04-30T04:27:21;101714.63;;;4.62;100.00
27014;BME280;14556;52.222;4.510;2023-04-30T04:29:48;101712.78;;;4.63;100.00
27014;BME280;14556;52.222;4.510;2023-04-30T04:32:15;101718.38;;;4.59;100.00
27014;BME280;14556;52.222;4.510;2023-04-30T04:34:41;101714.44;;;4.54;100.00
27014;BME280;14556;52.222;4.510;2023-04-30T04:37:08;101697.97;;;4.50;100.00
27014;BME280;14556;52.222;4.510;2023-04-30T04:39:35;101704.28;;;4.59;100.00
27014;BME280;14556;52.222;4.510;2023-04-30T04:42:02;101707.63;;;4.61;100.00
27014;BME280;14556;52.222;4.510;2023-04-30T04:44:30;101711.69;;;4.65;100.00
27014;BME280;14556;52.222;4.510;2023-04-30T04:46:57;101710.56;;;4.68;100.00
27014;BME280;14556;52.222;4.510;2023-04-30T04:49:24;101714.75;;;4.70;100.00
27014;BME280;14556;52.222;4.510;2023-04-30T04:51:50;101718.78;;;4.75;100.00
27014;BME280;14556;52.222;4.510;2023-04-30T04:54:17;101719.22;;;4.70;100.00
27014;BME280;14556;52.222;4.510;2023-04-30T04:56:43;101728.72;;;4.82;100.00
27014;BME280;14556;52.222;4.510;2023-04-30T04:59:10;101736.00;;;4.90;100.00
27014;BME280;14556;52.222;4.510;2023-04-30T05:01:37;101739.19;;;4.94;100.00
27014;BME280;14556;52.222;4.510;2023-04-30T05:04:03;101737.09;;;4.88;100.00
27014;BME280;14556;52.222;4.510;2023-04-30T05:06:30;101728.16;;;4.89;100.00
27014;BME280;14556;52.222;4.510;2023-04-30T05:08:57;101733.06;;;4.93;100.00
27014;BME280;14556;52.222;4.510;2023-04-30T05:11:24;101727.75;;;4.93;100.00
27014;BME280;14556;52.222;4.510;2023-04-30T05:13:50;101719.63;;;4.85;100.00
27014;BME280;14556;52.222;4.510;2023-04-30T05:16:17;101735.00;;;5.01;100.00
27014;BME280;14556;52.222;4.510;2023-04-30T05:18:44;101735.84;;;5.02;100.00
27014;BME280;14556;52.222;4.510;2023-04-30T05:21:10;101734.72;;;5.04;100.00
27014;BME280;14556;52.222;4.510;2023-04-30T05:23:37;101743.94;;;5.10;100.00
27014;BME280;14556;52.222;4.510;2023-04-30T05:26:03;101742.41;;;5.17;100.00
27014;BME280;14556;52.222;4.510;2023-04-30T05:28:30;101735.28;;;5.18;100.00
27014;BME280;14556;52.222;4.510;2023-04-30T05:30:57;101736.81;;;5.30;100.00
27014;BME280;14556;52.222;4.510;2023-04-30T05:33:23;101735.69;;;5.33;100.00
27014;BME280;14556;52.222;4.510;2023-04-30T05:35:50;101741.13;;;5.41;100.00
27014;BME280;14556;52.222;4.510;2023-04-30T05:38:16;101727.84;;;5.41;100.00
27014;BME280;14556;52.222;4.510;2023-04-30T05:40:43;101743.22;;;5.48;100.00
27014;BME280;14556;52.222;4.510;2023-04-30T05:43:10;101739.28;;;5.52;100.00
27014;BME280;14556;52.222;4.510;2023-04-30T05:45:37;101742.91;;;5.61;100.00
27014;BME280;14556;52.222;4.510;2023-04-30T05:48:03;101746.25;;;5.63;100.00
27014;BME280;14556;52.222;4.510;2023-04-30T05:50:30;101758.81;;;5.71;100.00
27014;BME280;14556;52.222;4.510;2023-04-30T05:52:57;101753.50;;;5.71;100.00
27014;BME280;14556;52.222;4.510;2023-04-30T05:55:23;101757.94;;;5.80;100.00
27014;BME280;14556;52.222;4.510;2023-04-30T05:57:50;101755.84;;;5.84;100.00
27014;BME280;14556;52.222;4.510;2023-04-30T06:00:16;101757.63;;;5.93;100.00
27014;BME280;14556;52.222;4.510;2023-04-30T06:02:43;101750.91;;;5.99;100.00
27014;BME280;14556;52.222;4.510;2023-04-30T06:05:10;101751.75;;;6.09;100.00
27014;BME280;14556;52.222;4.510;2023-04-30T06:07:39;101746.53;;;6.18;100.00
27014;BME280;14556;52.222;4.510;2023-04-30T06:10:06;101747.31;;;6.28;100.00
27014;BME280;14556;52.222;4.510;2023-04-30T06:12:34;101743.78;;;6.37;100.00
27014;BME280;14556;52.222;4.510;2023-04-30T06:15:01;101741.53;;;6.43;100.00
27014;BME280;14556;52.222;4.510;2023-04-30T06:17:28;101744.34;;;6.59;100.00
27014;BME280;14556;52.222;4.510;2023-04-30T06:19:54;101732.28;;;6.65;100.00
27014;BME280;14556;52.222;4.510;2023-04-30T06:22:21;101747.56;;;6.81;100.00
27014;BME280;14556;52.222;4.510;2023-04-30T06:24:48;101736.78;;;6.83;100.00
27014;BME280;14556;52.222;4.510;2023-04-30T06:27:14;101753.41;;;7.03;100.00
27014;BME280;14556;52.222;4.510;2023-04-30T06:29:42;101749.91;;;7.21;100.00
27014;BME280;14556;52.222;4.510;2023-04-30T06:32:09;101752.94;;;7.26;100.00
27014;BME280;14556;52.222;4.510;2023-04-30T06:34:37;101741.13;;;7.29;100.00
27014;BME280;14556;52.222;4.510;2023-04-30T06:37:04;101743.72;;;7.38;100.00
27014;BME280;14556;52.222;4.510;2023-04-30T06:39:30;101740.97;;;7.48;100.00
27014;BME280;14556;52.222;4.510;2023-04-30T06:41:57;101737.06;;;7.61;100.00
27014;BME280;14556;52.222;4.510;2023-04-30T06:44:23;101731.97;;;7.76;100.00
27014;BME280;14556;52.222;4.510;2023-04-30T06:46:50;101739.38;;;7.91;100.00
27014;BME280;14556;52.222;4.510;2023-04-30T06:49:16;101732.94;;;8.02;100.00
27014;BME280;14556;52.222;4.510;2023-04-30T06:51:43;101732.97;;;8.10;100.00
27014;BME280;14556;52.222;4.510;2023-04-30T06:54:09;101739.03;;;8.29;100.00
27014;BME280;14556;52.222;4.510;2023-04-30T06:56:36;101727.25;;;8.31;100.00
27014;BME280;14556;52.222;4.510;2023-04-30T06:59:02;101737.91;;;8.40;100.00
27014;BME280;14556;52.222;4.510;2023-04-30T07:01:29;101730.94;;;8.39;100.00
27014;BME280;14556;52.222;4.510;2023-04-30T07:03:56;101743.28;;;8.48;100.00
27014;BME280;14556;52.222;4.510;2023-04-30T07:06:23;101738.28;;;8.45;100.00
27014;BME280;14556;52.222;4.510;2023-04-30T07:08:49;101743.09;;;8.50;100.00
27014;BME280;14556;52.222;4.510;2023-04-30T07:11:16;101734.75;;;8.44;100.00
27014;BME280;14556;52.222;4.510;2023-04-30T07:13:43;101730.09;;;8.38;100.00
27014;BME280;14556;52.222;4.510;2023-04-30T07:16:10;101751.03;;;8.68;100.00
27014;BME280;14556;52.222;4.510;2023-04-30T07:18:37;101750.06;;;8.94;100.00
27014;BME280;14556;52.222;4.510;2023-04-30T07:21:03;101737.41;;;8.88;100.00
27014;BME280;14556;52.222;4.510;2023-04-30T07:23:30;101746.56;;;8.93;100.00
27014;BME280;14556;52.222;4.510;2023-04-30T07:25:56;101743.06;;;9.01;100.00
27014;BME280;14556;52.222;4.510;2023-04-30T07:28:23;101745.06;;;9.16;100.00
27014;BME280;14556;52.222;4.510;2023-04-30T07:30:49;101739.06;;;9.30;100.00
27014;BME280;14556;52.222;4.510;2023-04-30T07:33:16;101741.22;;;9.43;100.00
27014;BME280;14556;52.222;4.510;2023-04-30T07:35:43;101737.91;;;9.33;100.00
27014;BME280;14556;52.222;4.510;2023-04-30T07:38:10;101736.41;;;9.22;100.00
27014;BME280;14556;52.222;4.510;2023-04-30T07:40:36;101741.88;;;9.46;100.00
27014;BME280;14556;52.222;4.510;2023-04-30T07:43:03;101727.50;;;9.55;100.00
27014;BME280;14556;52.222;4.510;2023-04-30T07:45:32;101730.31;;;9.70;100.00
27014;BME280;14556;52.222;4.510;2023-04-30T07:48:00;101733.31;;;9.67;100.00
27014;BME280;14556;52.222;4.510;2023-04-30T07:50:27;101730.19;;;9.55;100.00
27014;BME280;14556;52.222;4.510;2023-04-30T07:52:54;101734.69;;;9.63;100.00
27014;BME280;14556;52.222;4.510;2023-04-30T07:55:21;101727.31;;;9.73;100.00
27014;BME280;14556;52.222;4.510;2023-04-30T07:57:48;101744.81;;;9.84;100.00
27014;BME280;14556;52.222;4.510;2023-04-30T08:00:14;101733.94;;;9.94;100.00
27014;BME280;14556;52.222;4.510;2023-04-30T08:02:43;101742.44;;;9.98;100.00
27014;BME280;14556;52.222;4.510;2023-04-30T08:05:11;101729.75;;;10.00;100.00
27014;BME280;14556;52.222;4.510;2023-04-30T08:07:37;101742.38;;;10.14;100.00
27014;BME280;14556;52.222;4.510;2023-04-30T08:10:05;101729.25;;;10.28;100.00
27014;BME280;14556;52.222;4.510;2023-04-30T08:12:35;101733.44;;;10.31;100.00
27014;BME280;14556;52.222;4.510;2023-04-30T08:15:02;101733.75;;;10.36;100.00
27014;BME280;14556;52.222;4.510;2023-04-30T08:17:33;101724.72;;;10.37;100.00
27014;BME280;14556;52.222;4.510;2023-04-30T08:20:02;101721.03;;;10.38;100.00
27014;BME280;14556;52.222;4.510;2023-04-30T08:22:29;101740.13;;;10.35;100.00
27014;BME280;14556;52.222;4.510;2023-04-30T08:24:56;101737.31;;;10.60;100.00
27014;BME280;14556;52.222;4.510;2023-04-30T08:27:23;101743.38;;;10.77;100.00
27014;BME280;14556;52.222;4.510;2023-04-30T08:29:49;101732.59;;;10.94;100.00
27014;BME280;14556;52.222;4.510;2023-04-30T08:32:18;101727.22;;;11.17;100.00
27014;BME280;14556;52.222;4.510;2023-04-30T08:34:45;101735.19;;;11.26;100.00
27014;BME280;14556;52.222;4.510;2023-04-30T08:37:11;101737.28;;;11.15;100.00
27014;BME280;14556;52.222;4.510;2023-04-30T08:39:38;101736.69;;;11.05;100.00
27014;BME280;14556;52.222;4.510;2023-04-30T08:42:08;101731.25;;;11.13;100.00
27014;BME280;14556;52.222;4.510;2023-04-30T08:44:39;101740.09;;;11.37;100.00
27014;BME280;14556;52.222;4.510;2023-04-30T08:47:10;101742.72;;;11.60;100.00
27014;BME280;14556;52.222;4.510;2023-04-30T08:49:39;101734.22;;;11.72;100.00
27014;BME280;14556;52.222;4.510;2023-04-30T08:52:06;101729.59;;;11.81;100.00
27014;BME280;14556;52.222;4.510;2023-04-30T08:54:35;101708.34;;;11.79;100.00
27014;BME280;14556;52.222;4.510;2023-04-30T08:57:02;101726.72;;;11.82;100.00
27014;BME280;14556;52.222;4.510;2023-04-30T08:59:29;101732.75;;;11.84;100.00
27014;BME280;14556;52.222;4.510;2023-04-30T09:01:56;101722.84;;;11.85;100.00
27014;BME280;14556;52.222;4.510;2023-04-30T09:04:23;101732.81;;;12.06;100.00
27014;BME280;14556;52.222;4.510;2023-04-30T09:06:51;101731.53;;;12.32;100.00
27014;BME280;14556;52.222;4.510;2023-04-30T09:09:18;101706.59;;;12.39;100.00
27014;BME280;14556;52.222;4.510;2023-04-30T09:11:45;101727.66;;;12.57;100.00
27014;BME280;14556;52.222;4.510;2023-04-30T09:14:11;101712.63;;;12.63;100.00
27014;BME280;14556;52.222;4.510;2023-04-30T09:16:46;101698.13;;;12.57;100.00
27014;BME280;14556;52.222;4.510;2023-04-30T09:19:28;101712.28;;;12.66;100.00
27014;BME280;14556;52.222;4.510;2023-04-30T09:21:57;101717.94;;;12.78;100.00
27014;BME280;14556;52.222;4.510;2023-04-30T09:24:23;101708.91;;;12.86;100.00
27014;BME280;14556;52.222;4.510;2023-04-30T09:26:50;101712.31;;;12.73;100.00
27014;BME280;14556;52.222;4.510;2023-04-30T09:29:17;101712.84;;;12.83;100.00
27014;BME280;14556;52.222;4.510;2023-04-30T09:31:45;101711.09;;;12.97;100.00
27014;BME280;14556;52.222;4.510;2023-04-30T09:34:13;101698.56;;;13.04;100.00
27014;BME280;14556;52.222;4.510;2023-04-30T09:36:53;101696.22;;;12.73;100.00
27014;BME280;14556;52.222;4.510;2023-04-30T09:39:20;101700.41;;;12.82;100.00
27014;BME280;14556;52.222;4.510;2023-04-30T09:41:49;101707.88;;;12.80;100.00
27014;BME280;14556;52.222;4.510;2023-04-30T09:44:30;101686.63;;;12.85;100.00
27014;BME280;14556;52.222;4.510;2023-04-30T09:46:57;101704.31;;;13.01;100.00
27014;BME280;14556;52.222;4.510;2023-04-30T09:49:25;101706.53;;;12.98;100.00
27014;BME280;14556;52.222;4.510;2023-04-30T09:52:00;101701.00;;;12.99;100.00
27014;BME280;14556;52.222;4.510;2023-04-30T09:54:31;101696.66;;;12.98;100.00
27014;BME280;14556;52.222;4.510;2023-04-30T09:56:59;101696.41;;;13.22;100.00
27014;BME280;14556;52.222;4.510;2023-04-30T09:59:31;101696.66;;;13.27;100.00
27014;BME280;14556;52.222;4.510;2023-04-30T10:02:00;101694.75;;;13.21;100.00
27014;BME280;14556;52.222;4.510;2023-04-30T10:04:34;101687.75;;;13.26;100.00
27014;BME280;14556;52.222;4.510;2023-04-30T10:07:07;101694.75;;;13.21;100.00
27014;BME280;14556;52.222;4.510;2023-04-30T10:09:39;101687.09;;;13.17;100.00
27014;BME280;14556;52.222;4.510;2023-04-30T10:12:14;101670.53;;;13.14;100.00
27014;BME280;14556;52.222;4.510;2023-04-30T10:14:49;101687.41;;;13.36;100.00
27014;BME280;14556;52.222;4.510;2023-04-30T10:17:17;101692.84;;;13.43;100.00
27014;BME280;14556;52.222;4.510;2023-04-30T10:19:47;101682.13;;;13.50;100.00
27014;BME280;14556;52.222;4.510;2023-04-30T10:22:15;101682.72;;;13.45;100.00
27014;BME280;14556;52.222;4.510;2023-04-30T10:24:42;101688.03;;;13.38;100.00
27014;BME280;14556;52.222;4.510;2023-04-30T10:27:10;101683.22;;;13.27;100.00
27014;BME280;14556;52.222;4.510;2023-04-30T10:29:37;101676.63;;;13.58;100.00
27014;BME280;14556;52.222;4.510;2023-04-30T10:32:03;101666.56;;;13.38;100.00
27014;BME280;14556;52.222;4.510;2023-04-30T10:35:25;101659.25;;;13.25;100.00
27014;BME280;14556;52.222;4.510;2023-04-30T10:37:33;101670.47;;;13.36;100.00
27014;BME280;14556;52.222;4.510;2023-04-30T10:40:02;101673.44;;;13.19;100.00
27014;BME280;14556;52.222;4.510;2023-04-30T10:42:33;101669.81;;;13.27;100.00
27014;BME280;14556;52.222;4.510;2023-04-30T10:45:01;101660.84;;;13.48;100.00
27014;BME280;14556;52.222;4.510;2023-04-30T10:47:30;101666.28;;;13.55;100.00
27014;BME280;14556;52.222;4.510;2023-04-30T10:50:04;101654.53;;;13.70;100.00
27014;BME280;14556;52.222;4.510;2023-04-30T10:52:30;101660.56;;;13.72;100.00
27014;BME280;14556;52.222;4.510;2023-04-30T10:55:24;101661.03;;;13.89;100.00
27014;BME280;14556;52.222;4.510;2023-04-30T10:57:52;101657.34;;;13.90;100.00
27014;BME280;14556;52.222;4.510;2023-04-30T11:00:29;101640.38;;;13.89;100.00
27014;BME280;14556;52.222;4.510;2023-04-30T11:02:57;101638.78;;;14.09;100.00
27014;BME280;14556;52.222;4.510;2023-04-30T11:05:35;101644.34;;;14.07;100.00
27014;BME280;14556;52.222;4.510;2023-04-30T11:08:03;101644.16;;;14.09;100.00
27014;BME280;14556;52.222;4.510;2023-04-30T11:10:33;101629.00;;;14.01;100.00
27014;BME280;14556;52.222;4.510;2023-04-30T11:13:07;101631.22;;;13.84;100.00
27014;BME280;14556;52.222;4.510;2023-04-30T11:15:44;101628.00;;;14.02;100.00
27014;BME280;14556;52.222;4.510;2023-04-30T11:18:12;101620.13;;;13.94;100.00
27014;BME280;14556;52.222;4.510;2023-04-30T11:20:48;101628.44;;;14.12;100.00
27014;BME280;14556;52.222;4.510;2023-04-30T11:23:22;101635.69;;;14.19;100.00
27014;BME280;14556;52.222;4.510;2023-04-30T11:26:06;101623.69;;;14.21;100.00
27014;BME280;14556;52.222;4.510;2023-04-30T11:28:38;101613.94;;;14.20;100.00
27014;BME280;14556;52.222;4.510;2023-04-30T11:31:43;101607.13;;;14.18;100.00
27014;BME280;14556;52.222;4.510;2023-04-30T11:34:15;101600.50;;;14.13;100.00
27014;BME280;14556;52.222;4.510;2023-04-30T11:36:58;101605.50;;;14.23;100.00
27014;BME280;14556;52.222;4.510;2023-04-30T11:39:34;101608.19;;;14.44;100.00
27014;BME280;14556;52.222;4.510;2023-04-30T11:42:06;101590.78;;;14.33;100.00
27014;BME280;14556;52.222;4.510;2023-04-30T11:44:42;101590.59;;;14.34;100.00
27014;BME280;14556;52.222;4.510;2023-04-30T11:47:08;101586.88;;;14.29;100.00
27014;BME280;14556;52.222;4.510;2023-04-30T11:49:36;101587.69;;;14.29;100.00
27014;BME280;14556;52.222;4.510;2023-04-30T11:52:05;101589.56;;;14.35;100.00
27014;BME280;14556;52.222;4.510;2023-04-30T11:54:37;101580.25;;;14.38;100.00
27014;BME280;14556;52.222;4.510;2023-04-30T11:57:04;101557.28;;;14.35;100.00
27014;BME280;14556;52.222;4.510;2023-04-30T11:59:39;101555.00;;;14.46;100.00
27014;BME280;14556;52.222;4.510;2023-04-30T12:02:16;101552.09;;;14.54;100.00
27014;BME280;14556;52.222;4.510;2023-04-30T12:04:50;101560.16;;;14.54;100.00
27014;BME280;14556;52.222;4.510;2023-04-30T12:07:17;101568.03;;;14.62;100.00
27014;BME280;14556;52.222;4.510;2023-04-30T12:09:52;101566.59;;;14.67;100.00
27014;BME280;14556;52.222;4.510;2023-04-30T12:12:29;101568.63;;;14.78;100.00
27014;BME280;14556;52.222;4.510;2023-04-30T12:15:09;101559.13;;;14.75;100.00
27014;BME280;14556;52.222;4.510;2023-04-30T12:17:38;101561.41;;;14.85;100.00
27014;BME280;14556;52.222;4.510;2023-04-30T12:20:08;101568.69;;;14.85;100.00
27014;BME280;14556;52.222;4.510;2023-04-30T12:22:42;101553.97;;;14.81;100.00
27014;BME280;14556;52.222;4.510;2023-04-30T12:25:20;101546.06;;;14.86;100.00
27014;BME280;14556;52.222;4.510;2023-04-30T12:27:51;101544.63;;;14.70;100.00
27014;BME280;14556;52.222;4.510;2023-04-30T12:30:23;101512.34;;;14.56;100.00
27014;BME280;14556;52.222;4.510;2023-04-30T12:32:52;101536.53;;;14.83;100.00
27014;BME280;14556;52.222;4.510;2023-04-30T12:35:21;101542.53;;;14.85;100.00
27014;BME280;14556;52.222;4.510;2023-04-30T12:37:53;101515.44;;;14.60;100.00
27014;BME280;14556;52.222;4.510;2023-04-30T12:40:23;101548.97;;;14.71;100.00
27014;BME280;14556;52.222;4.510;2023-04-30T12:43:00;101555.16;;;14.78;100.00
27014;BME280;14556;52.222;4.510;2023-04-30T12:46:03;101539.22;;;14.77;100.00
27014;BME280;14556;52.222;4.510;2023-04-30T12:48:42;101517.06;;;14.68;100.00
27014;BME280;14556;52.222;4.510;2023-04-30T12:51:09;101530.34;;;14.83;100.00
27014;BME280;14556;52.222;4.510;2023-04-30T12:53:45;101519.50;;;15.03;100.00
27014;BME280;14556;52.222;4.510;2023-04-30T12:56:14;101513.75;;;14.93;100.00
27014;BME280;14556;52.222;4.510;2023-04-30T12:58:43;101526.53;;;15.04;100.00
27014;BME280;14556;52.222;4.510;2023-04-30T13:01:18;101519.13;;;14.79;100.00
27014;BME280;14556;52.222;4.510;2023-04-30T13:03:45;101525.97;;;14.82;100.00
27014;BME280;14556;52.222;4.510;2023-04-30T13:06:13;101520.59;;;14.82;100.00
27014;BME280;14556;52.222;4.510;2023-04-30T13:08:39;101519.16;;;14.72;100.00
27014;BME280;14556;52.222;4.510;2023-04-30T13:11:22;101523.28;;;14.68;100.00
27014;BME280;14556;52.222;4.510;2023-04-30T13:13:50;101506.28;;;14.68;100.00
27014;BME280;14556;52.222;4.510;2023-04-30T13:16:16;101506.69;;;14.98;100.00
27014;BME280;14556;52.222;4.510;2023-04-30T13:18:43;101501.72;;;14.95;100.00